首页
METAR-TAF:

METAR-TAF

机场 :

立川, 日本

纬度: 35-42N, 经度: 139-24E, 海拔: 95米

当前天气观测

该预报发布于2小时和57分钟前的09:20 UTC
风速15节,风向,在北转西北北转东北之间变化
温度 11°C
湿度 66%
气压 1016 hPa
能见度10公里或以上
散云层高于2000英尺
多云层高于3000英尺

METAR: RJTC 090920Z 01015KT 330V030 9999 SCT020 BKN030 11/05 Q1016 RMK 3CU020 6CU030 A3000

时间: 21:17 (12:17 UTC)


TAF: 丢失

超过4000个机场的气象观测和天气预报(METAR&TAF报告)。

可查询的气象台以黄色和红色小点在地图上表示。

将鼠标移到小点上方,可查看气象台名称。

然后点击查看天气观测和预报。

如需切换地图:点击带黑十字的绿色按钮放大地图;点击带横线的绿色按钮缩小地图;或者点击绿色箭头查看邻近地区的地图。


METAR-TAF: